createdAt,value
2022-10-23T00:01:17.562Z,15.00
2022-10-23T00:03:44.707Z,14.40
2022-10-23T00:06:13.175Z,14.00
2022-10-23T00:08:40.992Z,13.90
2022-10-23T00:11:14.734Z,14.10
2022-10-23T00:13:41.421Z,14.10
2022-10-23T00:16:09.380Z,14.50
2022-10-23T00:18:38.574Z,15.50
2022-10-23T00:21:07.327Z,14.90
2022-10-23T00:23:34.054Z,14.20
2022-10-23T00:26:00.829Z,14.30
2022-10-23T00:28:27.360Z,13.80
2022-10-23T00:30:54.162Z,14.30
2022-10-23T00:33:20.854Z,15.00
2022-10-23T00:35:47.344Z,15.00
2022-10-23T00:38:13.988Z,14.10
2022-10-23T00:40:40.666Z,13.90
2022-10-23T00:43:07.783Z,13.40
2022-10-23T00:45:34.732Z,13.60
2022-10-23T00:48:03.004Z,14.10
2022-10-23T00:50:33.054Z,13.20
2022-10-23T00:53:03.351Z,13.50
2022-10-23T00:55:30.915Z,14.00
2022-10-23T00:57:57.538Z,13.20
2022-10-23T01:00:28.046Z,14.70
2022-10-23T01:02:56.574Z,14.30
2022-10-23T01:05:29.906Z,14.00
2022-10-23T01:08:02.884Z,15.00
2022-10-23T01:10:40.058Z,14.20
2022-10-23T01:13:15.092Z,14.80
2022-10-23T01:15:52.898Z,15.40
2022-10-23T01:18:56.867Z,14.80
2022-10-23T01:21:34.724Z,15.70
2022-10-23T01:24:01.192Z,16.60
2022-10-23T01:26:43.057Z,16.70
2022-10-23T01:29:29.670Z,17.60
2022-10-23T01:32:11.439Z,18.20
2022-10-23T01:34:47.126Z,17.70
2022-10-23T01:37:20.053Z,17.60
2022-10-23T01:39:52.282Z,17.40
2022-10-23T01:42:24.038Z,18.60
2022-10-23T01:45:01.347Z,18.10
2022-10-23T01:47:33.822Z,17.20
2022-10-23T01:50:03.157Z,17.80
2022-10-23T01:52:30.590Z,17.00
2022-10-23T01:55:00.767Z,17.80
2022-10-23T01:57:31.558Z,17.00
2022-10-23T02:00:13.258Z,18.30
2022-10-23T02:02:42.008Z,17.40
2022-10-23T02:05:15.034Z,15.60
2022-10-23T02:07:41.775Z,14.50
2022-10-23T02:10:09.979Z,14.70
2022-10-23T02:12:45.613Z,13.70
2022-10-23T02:15:23.010Z,13.10
2022-10-23T02:18:13.170Z,13.60
2022-10-23T02:20:46.416Z,13.20
2022-10-23T02:23:21.660Z,13.40
2022-10-23T02:26:00.703Z,13.10
2022-10-23T02:28:35.148Z,12.10
2022-10-23T02:31:04.626Z,13.20
2022-10-23T02:33:32.851Z,12.30
2022-10-23T02:35:59.440Z,12.30
2022-10-23T02:38:29.871Z,12.50
2022-10-23T02:41:03.318Z,12.10
2022-10-23T02:43:41.491Z,12.30
2022-10-23T02:46:11.078Z,12.10
2022-10-23T02:48:44.830Z,12.80
2022-10-23T02:51:29.988Z,11.10
2022-10-23T02:54:02.502Z,10.80
2022-10-23T02:56:56.555Z,11.90
2022-10-23T02:59:37.227Z,11.70
2022-10-23T03:02:22.869Z,11.00
2022-10-23T03:04:51.003Z,11.20
2022-10-23T03:07:19.990Z,11.00
2022-10-23T03:09:46.665Z,12.40
2022-10-23T03:12:13.172Z,11.30
2022-10-23T03:14:39.589Z,11.90
2022-10-23T03:17:06.192Z,11.70
2022-10-23T03:19:32.697Z,12.10
2022-10-23T03:21:59.235Z,12.70
2022-10-23T03:24:25.878Z,12.00
2022-10-23T03:26:52.319Z,12.20
2022-10-23T03:29:18.957Z,12.40
2022-10-23T03:31:45.449Z,12.10
2022-10-23T03:34:11.915Z,12.70
2022-10-23T03:36:38.389Z,11.90
2022-10-23T03:39:05.290Z,13.10
2022-10-23T03:41:32.385Z,13.60
2022-10-23T03:43:58.917Z,14.90
2022-10-23T03:46:25.879Z,15.10
2022-10-23T03:48:52.334Z,16.50
2022-10-23T03:51:18.975Z,17.70
2022-10-23T03:53:45.405Z,17.20
2022-10-23T03:56:11.859Z,17.60
2022-10-23T03:58:38.319Z,18.00
2022-10-23T04:01:04.849Z,19.50
2022-10-23T04:03:31.428Z,26.70
2022-10-23T04:05:57.887Z,23.70
2022-10-23T04:08:24.375Z,22.30
2022-10-23T04:10:50.830Z,21.50
2022-10-23T04:13:17.508Z,23.80
2022-10-23T04:15:51.474Z,23.20
2022-10-23T04:18:18.376Z,23.30
2022-10-23T04:20:48.291Z,23.70
2022-10-23T04:23:15.962Z,25.00
2022-10-23T04:25:42.632Z,25.80
2022-10-23T04:28:09.753Z,26.00
2022-10-23T04:30:36.294Z,26.30
2022-10-23T04:33:02.968Z,25.80
2022-10-23T04:35:29.415Z,27.30
2022-10-23T04:37:56.021Z,30.80
2022-10-23T04:40:22.557Z,30.10
2022-10-23T04:42:49.098Z,30.20
2022-10-23T04:45:15.747Z,28.70
2022-10-23T04:47:42.183Z,26.70
2022-10-23T04:50:08.722Z,24.60
2022-10-23T04:52:35.265Z,25.80
2022-10-23T04:55:01.806Z,24.80
2022-10-23T04:57:28.349Z,27.00
2022-10-23T04:59:54.891Z,26.30
2022-10-23T05:02:21.427Z,27.70
2022-10-23T05:04:47.992Z,25.00
2022-10-23T05:07:14.574Z,25.50
2022-10-23T05:09:41.220Z,26.60
2022-10-23T05:12:07.648Z,26.00
2022-10-23T05:14:34.090Z,26.50
2022-10-23T05:17:04.264Z,27.90
2022-10-23T05:19:38.170Z,25.30
2022-10-23T05:22:05.417Z,25.90
2022-10-23T05:24:31.966Z,24.90
2022-10-23T05:26:58.505Z,28.00
2022-10-23T05:29:24.954Z,26.80
2022-10-23T05:31:57.626Z,27.00
2022-10-23T05:34:27.594Z,27.10
2022-10-23T05:36:55.179Z,27.40
2022-10-23T05:39:22.072Z,25.70
2022-10-23T05:41:48.512Z,27.50
2022-10-23T05:44:15.040Z,31.30
2022-10-23T05:46:42.601Z,38.60
2022-10-23T05:49:09.655Z,31.00
2022-10-23T05:51:37.239Z,31.40
2022-10-23T05:54:04.376Z,28.10
2022-10-23T05:56:30.954Z,29.10
2022-10-23T05:58:57.368Z,27.40
2022-10-23T06:01:24.010Z,29.10
2022-10-23T06:03:50.745Z,29.30
2022-10-23T06:06:17.388Z,28.50
2022-10-23T06:08:43.931Z,29.90
2022-10-23T06:11:13.285Z,28.90
2022-10-23T06:13:42.381Z,34.60
2022-10-23T06:16:13.688Z,32.10
2022-10-23T06:21:07.386Z,30.40
2022-10-23T06:23:36.612Z,28.70
2022-10-23T06:26:04.166Z,26.60
2022-10-23T06:28:30.799Z,25.50
2022-10-23T06:30:57.292Z,26.20
2022-10-23T06:33:24.187Z,28.00
2022-10-23T06:35:50.680Z,26.70
2022-10-23T06:38:17.165Z,26.80
2022-10-23T06:40:43.605Z,28.00
2022-10-23T06:43:10.057Z,25.50
2022-10-23T06:45:36.660Z,33.00
2022-10-23T06:48:03.331Z,28.30
2022-10-23T06:50:29.875Z,20.60
2022-10-23T06:52:56.675Z,21.80
2022-10-23T06:55:23.132Z,19.30
2022-10-23T06:57:50.515Z,18.80
2022-10-23T07:00:17.230Z,17.90
2022-10-23T07:02:44.045Z,17.60
2022-10-23T07:05:13.531Z,16.40
2022-10-23T07:07:40.776Z,15.40
2022-10-23T07:10:07.999Z,13.90
2022-10-23T07:12:34.584Z,14.50
2022-10-23T07:15:01.130Z,16.00
2022-10-23T07:17:29.200Z,14.30
2022-10-23T07:19:55.742Z,13.70
2022-10-23T07:22:22.309Z,14.80
2022-10-23T07:24:48.730Z,13.50
2022-10-23T07:27:15.361Z,11.60
2022-10-23T07:29:41.865Z,12.00
2022-10-23T07:32:08.284Z,10.30
2022-10-23T07:34:34.739Z,9.80
2022-10-23T07:37:01.165Z,9.60
2022-10-23T07:39:27.656Z,7.90
2022-10-23T07:41:54.200Z,7.10
2022-10-23T07:44:22.095Z,6.60
2022-10-23T07:46:50.931Z,7.30
2022-10-23T07:49:17.355Z,7.10
2022-10-23T07:51:47.476Z,6.60
2022-10-23T07:54:16.945Z,6.70
2022-10-23T07:56:43.484Z,6.90
2022-10-23T07:59:13.529Z,6.90
2022-10-23T08:01:41.095Z,6.60
2022-10-23T08:04:10.068Z,6.20
2022-10-23T08:06:36.608Z,5.70
2022-10-23T08:09:06.473Z,4.80
2022-10-23T08:11:34.316Z,4.30
2022-10-23T08:14:02.277Z,3.90
2022-10-23T08:16:28.793Z,3.80
2022-10-23T08:18:55.461Z,4.30
2022-10-23T08:21:22.103Z,4.10
2022-10-23T08:23:49.161Z,3.90
2022-10-23T08:26:16.004Z,4.40
2022-10-23T08:28:42.547Z,4.30
2022-10-23T08:31:12.055Z,4.00
2022-10-23T08:33:39.624Z,3.90
2022-10-23T08:36:15.272Z,4.40
2022-10-23T08:38:41.815Z,3.50
2022-10-23T08:41:24.293Z,3.70
2022-10-23T08:43:58.350Z,3.40
2022-10-23T08:46:30.209Z,3.30
2022-10-23T08:49:39.347Z,3.70
2022-10-23T08:52:22.071Z,3.20
2022-10-23T08:55:22.867Z,3.60
2022-10-23T08:58:03.886Z,3.70
2022-10-23T09:00:30.736Z,3.20
2022-10-23T09:03:00.577Z,2.90
2022-10-23T09:06:04.463Z,3.10
2022-10-23T09:08:45.140Z,3.50
2022-10-23T09:11:15.671Z,2.90
2022-10-23T09:19:50.267Z,2.90
2022-10-23T09:22:16.787Z,2.30
2022-10-23T09:24:43.829Z,2.10
2022-10-23T09:27:16.318Z,2.00
2022-10-23T09:29:51.832Z,2.10
2022-10-23T09:32:19.536Z,2.40
2022-10-23T09:34:55.538Z,1.90
2022-10-23T09:37:30.682Z,1.90
2022-10-23T09:40:22.071Z,2.30
2022-10-23T09:42:55.197Z,2.20
2022-10-23T09:45:27.946Z,1.80
2022-10-23T09:48:23.970Z,2.00
2022-10-23T09:50:57.141Z,2.00
2022-10-23T09:53:29.182Z,2.30
2022-10-23T09:55:58.882Z,2.30
2022-10-23T09:58:33.392Z,2.30
2022-10-23T10:01:00.125Z,2.20
2022-10-23T10:03:26.888Z,2.00
2022-10-23T10:06:01.855Z,1.80
2022-10-23T10:08:52.007Z,2.00
2022-10-23T10:11:54.192Z,1.80
2022-10-23T10:14:42.539Z,2.10
2022-10-23T10:17:31.198Z,1.80
2022-10-23T10:20:06.766Z,1.70
2022-10-23T10:22:56.259Z,1.70
2022-10-23T10:25:52.228Z,1.70
2022-10-23T10:28:31.805Z,2.10
2022-10-23T10:31:01.366Z,1.90
2022-10-23T10:33:41.090Z,1.90
2022-10-23T10:36:41.961Z,1.90
2022-10-23T10:39:45.257Z,1.70
2022-10-23T10:42:31.010Z,2.40
2022-10-23T10:45:19.354Z,2.00
2022-10-23T10:48:12.184Z,2.20
2022-10-23T10:50:54.462Z,2.00
2022-10-23T10:53:28.683Z,2.30
2022-10-23T10:55:59.381Z,2.50
2022-10-23T10:58:40.405Z,2.20
2022-10-23T11:01:23.161Z,2.20
2022-10-23T11:03:55.454Z,2.30
2022-10-23T11:06:27.293Z,2.20
2022-10-23T11:09:09.259Z,2.20
2022-10-23T11:11:40.847Z,2.40
2022-10-23T11:14:18.373Z,2.30
2022-10-23T11:16:54.938Z,2.10
2022-10-23T11:19:35.416Z,2.00
2022-10-23T11:22:23.664Z,2.00
2022-10-23T11:25:09.047Z,1.70
2022-10-23T11:27:49.617Z,2.00
2022-10-23T11:30:41.164Z,1.90
2022-10-23T11:33:25.775Z,2.10
2022-10-23T11:36:13.274Z,2.20
2022-10-23T11:38:42.329Z,1.90
2022-10-23T11:41:23.655Z,1.80
2022-10-23T11:43:58.780Z,1.60
2022-10-23T11:46:25.217Z,1.70
2022-10-23T11:48:53.631Z,1.90
2022-10-23T11:51:33.657Z,1.90
2022-10-23T11:54:12.284Z,1.80
2022-10-23T11:56:50.900Z,1.60
2022-10-23T11:59:27.811Z,1.60
2022-10-23T12:01:56.074Z,1.10
2022-10-23T12:04:28.038Z,1.10
2022-10-23T12:07:00.772Z,1.20
2022-10-23T12:09:30.234Z,1.20
2022-10-23T12:12:08.965Z,1.20
2022-10-23T12:14:38.686Z,1.00
2022-10-23T12:17:23.861Z,1.20
2022-10-23T12:19:53.593Z,1.40
2022-10-23T12:22:24.485Z,1.30
2022-10-23T12:25:13.383Z,0.90
2022-10-23T12:28:01.540Z,1.00
2022-10-23T12:30:39.651Z,1.20
2022-10-23T12:33:20.004Z,1.00
2022-10-23T12:36:06.412Z,1.40
2022-10-23T12:38:35.566Z,1.20
2022-10-23T12:41:13.113Z,1.10
2022-10-23T12:43:40.884Z,1.00
2022-10-23T12:46:30.977Z,1.10
2022-10-23T12:48:59.360Z,0.90
2022-10-23T12:51:28.889Z,0.90
2022-10-23T12:53:55.823Z,1.10
2022-10-23T12:56:22.777Z,1.40
2022-10-23T12:58:52.587Z,1.30
2022-10-23T13:01:31.786Z,1.10
2022-10-23T13:04:10.824Z,1.20
2022-10-23T13:06:39.996Z,1.00
2022-10-23T13:09:15.414Z,1.10
2022-10-23T13:11:42.602Z,1.50
2022-10-23T13:14:13.737Z,1.40
2022-10-23T13:16:40.363Z,1.00
2022-10-23T13:19:06.916Z,1.00
2022-10-23T13:21:33.355Z,1.20
2022-10-23T13:23:59.886Z,1.00
2022-10-23T13:26:39.529Z,1.10
2022-10-23T13:29:20.645Z,1.00
2022-10-23T13:31:47.593Z,1.10
2022-10-23T13:34:58.150Z,1.20
2022-10-23T13:37:37.107Z,1.50
2022-10-23T13:40:07.025Z,1.70
2022-10-23T13:42:33.655Z,1.00
2022-10-23T13:45:00.094Z,0.80
2022-10-23T13:47:26.806Z,2.70
2022-10-23T13:49:53.451Z,1.60
2022-10-23T13:52:22.553Z,5.00
2022-10-23T13:54:49.510Z,3.70
2022-10-23T13:57:16.566Z,1.80
2022-10-23T13:59:43.408Z,2.00
2022-10-23T14:02:23.583Z,1.00
2022-10-23T14:04:51.536Z,3.00
2022-10-23T14:07:18.609Z,5.00
2022-10-23T14:09:45.439Z,2.00
2022-10-23T14:12:11.980Z,9.90
2022-10-23T14:14:38.522Z,12.70
2022-10-23T14:17:05.170Z,6.40
2022-10-23T14:19:33.752Z,3.70
2022-10-23T14:22:00.299Z,4.00
2022-10-23T14:24:26.941Z,2.10
2022-10-23T14:26:53.584Z,4.30
2022-10-23T14:29:24.171Z,5.40
2022-10-23T14:31:51.216Z,4.10
2022-10-23T14:34:18.320Z,4.40
2022-10-23T14:36:50.305Z,5.70
2022-10-23T14:39:18.335Z,6.70
2022-10-23T14:41:44.801Z,7.00
2022-10-23T14:44:11.357Z,5.00
2022-10-23T14:46:37.858Z,3.20
2022-10-23T14:49:04.420Z,1.90
2022-10-23T14:51:31.063Z,2.40
2022-10-23T14:54:00.189Z,2.60
2022-10-23T14:56:27.417Z,2.80
2022-10-23T14:58:54.470Z,2.10
2022-10-23T15:01:21.070Z,1.40
2022-10-23T15:03:47.588Z,1.70
2022-10-23T15:06:17.607Z,2.00
2022-10-23T15:08:45.026Z,5.10
2022-10-23T15:11:12.671Z,6.20
2022-10-23T15:13:39.336Z,15.90
2022-10-23T15:16:08.259Z,10.70
2022-10-23T15:18:35.821Z,12.90
2022-10-23T15:21:03.875Z,17.10
2022-10-23T15:23:30.404Z,16.70
2022-10-23T15:25:59.332Z,10.70
2022-10-23T15:28:28.914Z,6.20
2022-10-23T15:30:55.760Z,7.40
2022-10-23T15:33:23.839Z,7.30
2022-10-23T15:35:51.504Z,11.00
2022-10-23T15:38:18.570Z,8.50
2022-10-23T15:40:45.303Z,10.50
2022-10-23T15:43:15.940Z,7.10
2022-10-23T15:45:43.104Z,11.20
2022-10-23T15:48:09.783Z,5.20
2022-10-23T15:50:36.989Z,9.60
2022-10-23T15:53:03.839Z,7.30
2022-10-23T15:55:30.475Z,23.60
2022-10-23T15:57:57.140Z,23.30
2022-10-23T16:00:23.716Z,12.60
2022-10-23T16:02:50.280Z,12.40
2022-10-23T16:05:16.732Z,13.00
2022-10-23T16:07:43.288Z,15.30
2022-10-23T16:10:10.119Z,15.60
2022-10-23T16:12:36.657Z,16.80
2022-10-23T16:15:03.500Z,16.20
2022-10-23T16:17:29.946Z,17.00
2022-10-23T16:19:56.409Z,17.40
2022-10-23T16:22:22.879Z,19.70
2022-10-23T16:24:49.473Z,18.80
2022-10-23T16:27:16.092Z,17.80
2022-10-23T16:29:42.777Z,18.40
2022-10-23T16:32:09.275Z,22.30
2022-10-23T16:34:35.718Z,22.90
2022-10-23T16:37:02.895Z,22.20
2022-10-23T16:39:29.375Z,21.80
2022-10-23T16:41:55.823Z,22.20
2022-10-23T16:44:22.322Z,30.70
2022-10-23T16:46:48.747Z,25.70
2022-10-23T16:49:15.255Z,25.20
2022-10-23T16:51:41.792Z,24.40
2022-10-23T16:54:09.571Z,42.80
2022-10-23T16:56:36.207Z,41.80
2022-10-23T16:59:02.748Z,35.20
2022-10-23T17:01:31.393Z,33.10
2022-10-23T17:03:58.073Z,28.50
2022-10-23T17:06:31.911Z,27.80
2022-10-23T17:08:59.957Z,32.40
2022-10-23T17:11:32.337Z,29.80
2022-10-23T17:14:14.456Z,31.30
2022-10-23T17:16:48.693Z,30.90
2022-10-23T17:19:33.083Z,31.30
2022-10-23T17:22:05.470Z,33.50
2022-10-23T17:24:31.939Z,32.60
2022-10-23T17:26:58.378Z,34.70
2022-10-23T17:29:24.919Z,33.40
2022-10-23T17:31:51.867Z,33.70
2022-10-23T17:34:20.890Z,35.00
2022-10-23T17:36:50.413Z,37.70
2022-10-23T17:39:20.407Z,36.20
2022-10-23T17:41:47.972Z,45.40
2022-10-23T17:44:14.918Z,43.80
2022-10-23T17:46:41.667Z,37.60
2022-10-23T17:49:08.307Z,38.80
2022-10-23T17:51:35.973Z,37.70
2022-10-23T17:54:06.818Z,43.20
2022-10-23T17:56:34.999Z,43.00
2022-10-23T17:59:08.679Z,59.00
2022-10-23T18:01:35.600Z,51.50
2022-10-23T18:04:05.604Z,80.00
2022-10-23T18:06:36.053Z,75.90
2022-10-23T18:09:07.066Z,78.60
2022-10-23T18:11:36.556Z,54.20
2022-10-23T18:14:05.658Z,64.30
2022-10-23T18:16:34.145Z,58.40
2022-10-23T18:19:03.152Z,47.80
2022-10-23T18:21:30.501Z,37.20
2022-10-23T18:23:59.610Z,37.40
2022-10-23T18:26:28.508Z,39.80
2022-10-23T18:28:57.523Z,38.30
2022-10-23T18:31:26.386Z,31.70
2022-10-23T18:33:58.098Z,31.50
2022-10-23T18:36:27.992Z,42.60
2022-10-23T18:41:22.374Z,48.30
2022-10-23T18:43:49.940Z,50.20
2022-10-23T18:46:17.525Z,49.90
2022-10-23T18:48:44.859Z,52.00
2022-10-23T18:51:16.072Z,54.00
2022-10-23T18:56:09.517Z,52.60
2022-10-23T18:58:37.274Z,56.90
2022-10-23T19:01:04.531Z,58.60
2022-10-23T19:03:31.147Z,61.40
2022-10-23T19:05:59.924Z,61.30
2022-10-23T19:08:26.633Z,64.30
2022-10-23T19:10:53.856Z,48.50
2022-10-23T19:13:20.706Z,46.70
2022-10-23T19:15:47.342Z,50.40
2022-10-23T19:18:13.965Z,51.00
2022-10-23T19:20:43.642Z,55.10
2022-10-23T19:23:12.798Z,52.30
2022-10-23T19:25:44.157Z,55.70
2022-10-23T19:28:11.107Z,57.80
2022-10-23T19:30:39.698Z,57.60
2022-10-23T19:33:06.237Z,55.40
2022-10-23T19:35:32.976Z,62.10
2022-10-23T19:37:59.514Z,61.00
2022-10-23T19:40:26.052Z,60.10
2022-10-23T19:42:52.494Z,57.30
2022-10-23T19:45:19.164Z,56.70
2022-10-23T19:47:46.252Z,52.20
2022-10-23T19:50:13.200Z,50.90
2022-10-23T19:52:39.979Z,62.80
2022-10-23T19:55:07.330Z,54.80
2022-10-23T19:57:33.986Z,47.70
2022-10-23T20:00:01.450Z,46.20
2022-10-23T20:02:28.854Z,48.00
2022-10-23T20:04:55.446Z,53.40
2022-10-23T20:07:21.884Z,55.10
2022-10-23T20:09:48.421Z,57.30
2022-10-23T20:12:14.964Z,49.80
2022-10-23T20:14:41.503Z,46.20
2022-10-23T20:17:08.045Z,47.80
2022-10-23T20:19:34.479Z,45.00
2022-10-23T20:22:00.934Z,46.70
2022-10-23T20:24:27.443Z,47.80
2022-10-23T20:26:55.562Z,55.20
2022-10-23T20:29:23.309Z,68.40
2022-10-23T20:31:49.974Z,57.70
2022-10-23T20:34:16.795Z,62.30
2022-10-23T20:36:46.942Z,54.90
2022-10-23T20:39:20.668Z,54.50
2022-10-23T20:41:47.783Z,62.40
2022-10-23T20:46:44.985Z,53.40
2022-10-23T20:49:13.040Z,53.60
2022-10-23T20:51:39.872Z,52.70
2022-10-23T20:54:06.414Z,50.20
2022-10-23T20:56:35.920Z,45.90
2022-10-23T20:59:05.850Z,48.30
2022-10-23T21:01:33.811Z,45.50
2022-10-23T21:04:02.361Z,42.70
2022-10-23T21:06:45.432Z,48.00
2022-10-23T21:09:17.717Z,43.20
2022-10-23T21:11:44.186Z,42.90
2022-10-23T21:14:10.654Z,43.00
2022-10-23T21:16:39.342Z,31.10
2022-10-23T21:19:05.807Z,31.50
2022-10-23T21:21:32.457Z,34.00
2022-10-23T21:23:59.943Z,34.20
2022-10-23T21:26:29.118Z,40.90
2022-10-23T21:29:16.901Z,44.20
2022-10-23T21:31:42.573Z,42.90
2022-10-23T21:36:54.155Z,45.50
2022-10-23T21:39:29.022Z,41.60
2022-10-23T21:41:55.561Z,41.80
2022-10-23T21:44:22.264Z,42.70
2022-10-23T21:46:48.744Z,43.70
2022-10-23T21:49:15.383Z,44.90
2022-10-23T21:51:41.925Z,42.90
2022-10-23T21:54:12.561Z,38.40
2022-10-23T21:56:42.429Z,36.60
2022-10-23T21:59:11.583Z,38.40
2022-10-23T22:01:42.440Z,37.30
2022-10-23T22:04:09.991Z,36.20
2022-10-23T22:06:38.478Z,38.30
2022-10-23T22:09:06.289Z,34.20
2022-10-23T22:11:33.301Z,34.70
2022-10-23T22:14:00.778Z,36.30
2022-10-23T22:16:27.922Z,37.40
2022-10-23T22:18:54.581Z,33.90
2022-10-23T22:21:25.018Z,34.00
2022-10-23T22:23:54.703Z,35.30
2022-10-23T22:26:35.890Z,32.90
2022-10-23T22:29:06.768Z,31.90
2022-10-23T22:31:35.040Z,32.70
2022-10-23T22:34:13.284Z,35.40
2022-10-23T22:36:51.039Z,33.70
2022-10-23T22:39:17.461Z,31.70
2022-10-23T22:41:44.335Z,32.00
2022-10-23T22:44:12.098Z,33.70
2022-10-23T22:46:38.944Z,32.20
2022-10-23T22:54:03.854Z,31.90
2022-10-23T22:56:30.834Z,34.70
2022-10-23T22:58:58.293Z,35.40
2022-10-23T23:01:38.875Z,34.70
2022-10-23T23:04:14.085Z,34.80
2022-10-23T23:06:52.143Z,32.40
2022-10-23T23:09:18.667Z,32.80
2022-10-23T23:11:52.170Z,33.10
2022-10-23T23:14:23.391Z,32.60
2022-10-23T23:16:52.953Z,32.80
2022-10-23T23:19:19.922Z,33.00
2022-10-23T23:21:46.568Z,30.90
2022-10-23T23:24:13.034Z,32.10
2022-10-23T23:26:40.096Z,29.30
2022-10-23T23:29:06.650Z,28.80
2022-10-23T23:31:33.190Z,28.30
2022-10-23T23:33:59.685Z,27.30
2022-10-23T23:36:28.221Z,26.50
2022-10-23T23:38:56.494Z,28.20
2022-10-23T23:41:23.970Z,28.40
2022-10-23T23:43:50.915Z,27.00
2022-10-23T23:46:17.882Z,26.80
2022-10-23T23:48:44.951Z,26.50
2022-10-23T23:51:11.410Z,25.60
2022-10-23T23:53:37.963Z,25.80
2022-10-23T23:56:05.055Z,25.90
2022-10-23T23:58:31.671Z,25.20
